Time;durP1;ratioP1;P1;durP2;ratioP2;P2;SDS_P1;SDS_P2;PMS_P1;PMS_P2;Temp;Humidity;BMP_temperature;BMP_pressure;BME280_temperature;BME280_humidity;BME280_pressure;Samples;Min_cycle;Max_cycle;Signal;HPM_P1;HPM_P2
2023/05/04 00:00:18;;;;;;;;;;;;;;;-142.75;100.00;78259.59;4989623;28;20339;-70
2023/05/04 00:02:43;;;;;;;;;;;;;;;-142.75;100.00;78255.66;4989397;28;19918;-70
2023/05/04 00:05:10;;;;;;;;;;;;;;;-142.75;100.00;78259.59;4989154;28;19918;-70
2023/05/04 00:07:36;;;;;;;;;;;;;;;-142.75;100.00;78253.69;4989226;28;19913;-70
2023/05/04 00:10:01;;;;;;;;;;;;;;;-142.75;100.00;78241.88;4972199;28;19922;-70
2023/05/04 00:12:27;;;;;;;;;;;;;;;-142.75;100.00;78259.59;4989219;28;19929;-70
2023/05/04 00:14:52;;;;;;;;;;;;;;;-142.75;100.00;78275.34;4971737;28;20306;-71
2023/05/04 00:17:18;;;;;;;;;;;;;;;-142.75;100.00;78277.31;4989312;28;19917;-70
2023/05/04 00:19:44;;;;;;;;;;;;;;;-142.75;100.00;78271.41;4989162;28;19949;-70
2023/05/04 00:22:10;;;;;;;;;;;;;;;-142.75;100.00;78279.28;4989366;28;19987;-70
2023/05/04 00:24:35;;;;;;;;;;;;;;;-142.75;100.00;78283.22;4988758;28;19918;-71
2023/05/04 00:27:01;;;;;;;;;;;;;;;-142.75;100.00;78287.16;4988763;28;19924;-71
2023/05/04 00:29:26;;;;;;;;;;;;;;;-142.75;100.00;78267.47;4989176;28;19914;-69
2023/05/04 00:31:51;;;;;;;;;;;;;;;-142.75;100.00;78279.28;4989084;28;19913;-69
2023/05/04 00:34:17;;;;;;;;;;;;;;;-142.75;100.00;78283.22;4971283;28;19979;-70
2023/05/04 00:36:42;;;;;;;;;;;;;;;-142.75;100.00;78271.41;4987666;28;19918;-71
2023/05/04 00:39:07;;;;;;;;;;;;;;;-142.75;100.00;78281.25;4989145;28;20000;-71
2023/05/04 00:41:33;;;;;;;;;;;;;;;-142.75;100.00;78279.28;4987470;28;19913;-70
2023/05/04 00:43:58;;;;;;;;;;;;;;;-142.75;100.00;78269.44;4988586;28;20375;-70
2023/05/04 00:46:23;;;;;;;;;;;;;;;-142.75;100.00;78287.16;4988503;28;20302;-69
2023/05/04 00:48:51;;;;;;;;;;;;;;;-142.75;100.00;78285.19;4988790;28;19913;-70
2023/05/04 00:51:18;;;;;;;;;;;;;;;-142.75;100.00;78293.06;4970925;28;19959;-69
2023/05/04 00:53:43;;;;;;;;;;;;;;;-142.75;100.00;78306.88;4987152;28;19987;-71
2023/05/04 00:56:09;;;;;;;;;;;;;;;-142.75;100.00;78297.00;4988328;28;20379;-70
2023/05/04 00:58:34;;;;;;;;;;;;;;;-142.75;100.00;78306.88;4971023;28;20576;-70
2023/05/04 01:01:00;;;;;;;;;;;;;;;-142.75;100.00;78322.63;4988467;28;19921;-70
2023/05/04 01:03:26;;;;;;;;;;;;;;;-142.75;100.00;78318.69;4988215;28;19924;-70
2023/05/04 01:06:11;;;;;;;;;;;;;;;-142.75;100.00;78320.66;4986957;28;20056;-71
2023/05/04 01:08:39;;;;;;;;;;;;;;;-142.75;100.00;78316.72;4957880;28;20290;-70
2023/05/04 01:11:14;;;;;;;;;;;;;;;-142.75;100.00;78318.69;4988159;28;19924;-70
2023/05/04 01:13:40;;;;;;;;;;;;;;;-142.75;100.00;78334.44;4988106;28;20389;-70
2023/05/04 01:16:05;;;;;;;;;;;;;;;-142.75;100.00;78314.75;4988466;28;19913;-70
2023/05/04 01:18:31;;;;;;;;;;;;;;;-142.75;100.00;78312.78;4987692;28;19920;-68
2023/05/04 01:20:56;;;;;;;;;;;;;;;-142.75;100.00;78306.88;4987961;28;20490;-71
2023/05/04 01:23:21;;;;;;;;;;;;;;;-142.75;100.00;78314.75;4987991;28;20546;-70
2023/05/04 01:25:59;;;;;;;;;;;;;;;-142.75;100.00;78308.84;4986387;28;19917;-70
2023/05/04 01:28:32;;;;;;;;;;;;;;;-142.75;100.00;78295.06;4988119;28;19913;-71
2023/05/04 01:30:59;;;;;;;;;;;;;;;-142.75;100.00;78299.00;4986398;28;19923;-70
2023/05/04 01:33:24;;;;;;;;;;;;;;;-142.75;100.00;78285.19;4986519;28;19924;-70
2023/05/04 01:35:50;;;;;;;;;;;;;;;-142.75;100.00;78291.09;4986130;28;20012;-70
2023/05/04 01:38:16;;;;;;;;;;;;;;;-142.75;100.00;78297.00;4986964;28;20008;-68
2023/05/04 01:40:41;;;;;;;;;;;;;;;-142.75;100.00;78302.94;4987982;28;20000;-71
2023/05/04 01:43:07;;;;;;;;;;;;;;;-142.75;100.00;78306.88;4987687;28;19918;-67
2023/05/04 01:45:32;;;;;;;;;;;;;;;-142.75;100.00;78306.88;4987432;28;20363;-70
2023/05/04 01:47:57;;;;;;;;;;;;;;;-142.75;100.00;78308.84;4987323;28;19914;-70
2023/05/04 01:50:22;;;;;;;;;;;;;;;-142.75;100.00;78316.72;4987473;28;20303;-70
2023/05/04 01:52:47;;;;;;;;;;;;;;;-142.75;100.00;78299.00;4987467;28;20417;-69
2023/05/04 01:55:13;;;;;;;;;;;;;;;-142.75;100.00;78304.91;4987212;28;20406;-68
2023/05/04 01:57:38;;;;;;;;;;;;;;;-142.75;100.00;78297.00;4978143;28;19919;-70
2023/05/04 02:00:03;;;;;;;;;;;;;;;-142.75;100.00;78318.69;4987212;28;19945;-70
2023/05/04 02:02:28;;;;;;;;;;;;;;;-142.75;100.00;78326.56;4987216;28;19917;-70
2023/05/04 02:04:54;;;;;;;;;;;;;;;-142.75;100.00;78316.72;4986559;28;19917;-70
2023/05/04 02:07:19;;;;;;;;;;;;;;;-142.75;100.00;78308.84;4987043;28;20029;-70
2023/05/04 02:09:44;;;;;;;;;;;;;;;-142.75;100.00;78310.81;4987778;28;20623;-70
2023/05/04 02:12:09;;;;;;;;;;;;;;;-142.75;100.00;78318.69;4987121;28;19913;-70
2023/05/04 02:14:34;;;;;;;;;;;;;;;-142.75;100.00;78322.63;4986996;28;19914;-70
2023/05/04 02:17:00;;;;;;;;;;;;;;;-142.75;100.00;78316.72;4987041;28;19917;-69
2023/05/04 02:19:25;;;;;;;;;;;;;;;-142.75;100.00;78318.69;4987147;28;19918;-70
2023/05/04 02:21:51;;;;;;;;;;;;;;;-142.75;100.00;78328.53;4986932;28;19913;-70
2023/05/04 02:24:16;;;;;;;;;;;;;;;-142.75;100.00;78334.44;5001458;28;20000;-67
2023/05/04 02:26:42;;;;;;;;;;;;;;;-142.75;100.00;78328.53;4970713;28;20401;-71
2023/05/04 02:29:07;;;;;;;;;;;;;;;-142.75;100.00;78328.53;4986985;28;20474;-68
2023/05/04 02:31:32;;;;;;;;;;;;;;;-142.75;100.00;78338.38;4986688;28;19913;-70
2023/05/04 02:33:58;;;;;;;;;;;;;;;-142.75;100.00;78330.50;4986470;28;20113;-69
2023/05/04 02:36:23;;;;;;;;;;;;;;;-142.75;100.00;78330.50;4986712;28;19996;-70
2023/05/04 02:38:49;;;;;;;;;;;;;;;-142.75;100.00;78318.69;4986974;28;19921;-70
2023/05/04 02:41:14;;;;;;;;;;;;;;;-142.75;100.00;78316.72;4972582;28;19945;-70
2023/05/04 02:43:39;;;;;;;;;;;;;;;-142.75;100.00;78314.75;4984868;28;19948;-70
2023/05/04 02:46:05;;;;;;;;;;;;;;;-142.75;100.00;78332.47;4986633;28;19979;-70
2023/05/04 02:48:30;;;;;;;;;;;;;;;-142.75;100.00;78336.41;4986995;28;19913;-70
2023/05/04 02:50:55;;;;;;;;;;;;;;;-142.75;100.00;78330.50;4986591;28;19917;-70
2023/05/04 02:53:21;;;;;;;;;;;;;;;-142.75;100.00;78330.50;4984976;28;19914;-70
2023/05/04 02:55:46;;;;;;;;;;;;;;;-142.75;100.00;78322.63;4986482;28;19945;-68
2023/05/04 02:58:11;;;;;;;;;;;;;;;-142.75;100.00;78322.63;4986618;28;19960;-71
2023/05/04 03:00:36;;;;;;;;;;;;;;;-142.75;100.00;78328.53;4986382;28;20004;-69
2023/05/04 03:03:02;;;;;;;;;;;;;;;-142.75;100.00;78330.50;4986134;28;19913;-67
2023/05/04 03:05:27;;;;;;;;;;;;;;;-142.75;100.00;78320.66;4986202;28;19921;-70
2023/05/04 03:07:52;;;;;;;;;;;;;;;-142.75;100.00;78318.69;4986108;28;19918;-70
2023/05/04 03:10:17;;;;;;;;;;;;;;;-142.75;100.00;78326.56;4986753;28;20518;-70
2023/05/04 03:12:43;;;;;;;;;;;;;;;-142.75;100.00;78334.44;4968744;28;20016;-70
2023/05/04 03:15:09;;;;;;;;;;;;;;;-142.75;100.00;78334.44;4986315;28;20302;-70
2023/05/04 03:17:34;;;;;;;;;;;;;;;-142.75;100.00;78330.50;4987671;28;19921;-70
2023/05/04 03:20:00;;;;;;;;;;;;;;;-142.75;100.00;78332.47;4990292;28;19925;-69
2023/05/04 03:22:25;;;;;;;;;;;;;;;-142.75;100.00;78344.28;4990205;28;19914;-69
2023/05/04 03:24:50;;;;;;;;;;;;;;;-142.75;100.00;78328.53;4990138;28;19914;-70
2023/05/04 03:27:16;;;;;;;;;;;;;;;-142.75;100.00;78314.75;4990323;28;19921;-68
2023/05/04 03:29:41;;;;;;;;;;;;;;;-142.75;100.00;78326.56;4990364;28;19951;-70
2023/05/04 03:32:06;;;;;;;;;;;;;;;-142.75;100.00;78326.56;4990066;28;19920;-70
2023/05/04 03:34:31;;;;;;;;;;;;;;;-142.75;100.00;78316.72;4989932;28;19921;-70
2023/05/04 03:36:57;;;;;;;;;;;;;;;-142.75;100.00;78326.56;4989876;28;19949;-70
2023/05/04 03:39:22;;;;;;;;;;;;;;;-142.75;100.00;78348.22;4990287;28;19928;-71
2023/05/04 03:41:48;;;;;;;;;;;;;;;-142.75;100.00;78336.41;4989728;28;20482;-68
2023/05/04 03:44:13;;;;;;;;;;;;;;;-142.75;100.00;78346.25;4989954;28;19913;-71
2023/05/04 03:46:38;;;;;;;;;;;;;;;-142.75;100.00;78358.06;4989910;28;19928;-70
2023/05/04 03:49:04;;;;;;;;;;;;;;;-142.75;100.00;78360.03;4972034;28;19914;-70
2023/05/04 03:51:29;;;;;;;;;;;;;;;-142.75;100.00;78371.84;4989881;28;19913;-70
2023/05/04 03:53:54;;;;;;;;;;;;;;;-142.75;100.00;78367.91;4989503;28;20416;-68
2023/05/04 03:56:20;;;;;;;;;;;;;;;-142.75;100.00;78352.16;4989579;28;20028;-69
2023/05/04 03:58:46;;;;;;;;;;;;;;;-142.75;100.00;78365.94;4989500;28;19921;-68
2023/05/04 04:01:11;;;;;;;;;;;;;;;-142.75;100.00;78358.06;4989765;28;19976;-70
2023/05/04 04:03:37;;;;;;;;;;;;;;;-142.75;100.00;78358.06;4989479;28;20380;-70
2023/05/04 04:06:02;;;;;;;;;;;;;;;-142.75;100.00;78352.16;4989035;28;20317;-70
2023/05/04 04:08:28;;;;;;;;;;;;;;;-142.75;100.00;78354.13;4989298;28;19920;-71
2023/05/04 04:10:53;;;;;;;;;;;;;;;-142.75;100.00;78338.38;4989610;28;19917;-70
2023/05/04 04:13:19;;;;;;;;;;;;;;;-142.75;100.00;78346.25;4987964;28;19952;-69
2023/05/04 04:15:45;;;;;;;;;;;;;;;-142.75;100.00;78354.13;4989596;28;19922;-71
2023/05/04 04:18:10;;;;;;;;;;;;;;;-142.75;100.00;78328.53;4987857;28;19944;-70
2023/05/04 04:20:35;;;;;;;;;;;;;;;-142.75;100.00;78338.38;4989307;28;19969;-70
2023/05/04 04:23:01;;;;;;;;;;;;;;;-142.75;100.00;78332.47;4987739;28;19924;-70
2023/05/04 04:25:26;;;;;;;;;;;;;;;-142.75;100.00;78342.31;4971582;28;19918;-71
2023/05/04 04:27:51;;;;;;;;;;;;;;;-142.75;100.00;78326.56;4987623;28;19920;-70
2023/05/04 04:30:16;;;;;;;;;;;;;;;-142.75;100.00;78340.34;4988935;28;19913;-68
2023/05/04 04:32:42;;;;;;;;;;;;;;;-142.75;100.00;78342.31;4988855;28;20479;-69
2023/05/04 04:35:07;;;;;;;;;;;;;;;-142.75;100.00;78340.34;4984502;28;19921;-67
2023/05/04 04:37:32;;;;;;;;;;;;;;;-142.75;100.00;78318.69;4988189;28;19914;-69
2023/05/04 04:39:58;;;;;;;;;;;;;;;-142.75;100.00;78326.56;4988682;28;20394;-69
2023/05/04 04:42:23;;;;;;;;;;;;;;;-142.75;100.00;78318.69;4977122;28;19920;-68
2023/05/04 04:44:48;;;;;;;;;;;;;;;-142.75;100.00;78314.75;4987802;28;20415;-68
2023/05/04 04:47:15;;;;;;;;;;;;;;;-142.75;100.00;78324.59;4988113;28;19913;-70
2023/05/04 04:49:40;;;;;;;;;;;;;;;-142.75;100.00;78320.66;4988987;28;19968;-70
2023/05/04 04:52:05;;;;;;;;;;;;;;;-142.75;100.00;78314.75;4988557;28;19924;-70
2023/05/04 04:54:31;;;;;;;;;;;;;;;-142.75;100.00;78291.09;4988336;28;20001;-71
2023/05/04 04:56:56;;;;;;;;;;;;;;;-142.75;100.00;78300.97;4988474;28;20322;-70
2023/05/04 04:59:23;;;;;;;;;;;;;;;-142.75;100.00;78295.06;4988575;28;19913;-71
2023/05/04 05:01:49;;;;;;;;;;;;;;;-142.75;100.00;78279.28;4983013;28;19984;-69
2023/05/04 05:04:14;;;;;;;;;;;;;;;-142.75;100.00;78279.28;4988251;28;19917;-70
2023/05/04 05:06:40;;;;;;;;;;;;;;;-142.75;100.00;78293.06;4988140;28;19925;-69
2023/05/04 05:09:05;;;;;;;;;;;;;;;-142.75;100.00;78273.38;4971267;28;19914;-69
2023/05/04 05:11:31;;;;;;;;;;;;;;;-142.75;100.00;78267.47;4988352;28;19936;-68
2023/05/04 05:13:58;;;;;;;;;;;;;;;-142.75;100.00;78261.56;4987825;28;20298;-69
2023/05/04 05:16:23;;;;;;;;;;;;;;;-142.75;100.00;78259.59;4988214;28;19914;-70
2023/05/04 05:18:49;;;;;;;;;;;;;;;-142.75;100.00;78241.88;4987969;28;20622;-69
2023/05/04 05:21:14;;;;;;;;;;;;;;;-142.75;100.00;78230.06;4988216;28;19913;-70
2023/05/04 05:23:39;;;;;;;;;;;;;;;-142.75;100.00;78226.13;4987899;28;19913;-69
2023/05/04 05:26:05;;;;;;;;;;;;;;;-142.75;100.00;78232.03;4987560;28;19961;-70
2023/05/04 05:28:31;;;;;;;;;;;;;;;-142.75;100.00;78235.97;4987575;28;19913;-68
2023/05/04 05:30:56;;;;;;;;;;;;;;;-142.75;100.00;78222.19;4985247;28;20334;-70
2023/05/04 05:33:21;;;;;;;;;;;;;;;-142.75;100.00;78198.56;4979975;28;19914;-69
2023/05/04 05:35:46;;;;;;;;;;;;;;;-142.75;100.00;78192.66;4974988;28;19928;-70
2023/05/04 05:38:12;;;;;;;;;;;;;;;-142.75;100.00;78194.63;4977443;28;20410;-69
2023/05/04 05:40:37;;;;;;;;;;;;;;;-142.75;100.00;78184.78;4987020;28;19923;-69
2023/05/04 05:43:04;;;;;;;;;;;;;;;-142.75;100.00;78184.78;4985947;28;20571;-70
2023/05/04 05:45:29;;;;;;;;;;;;;;;-142.75;100.00;78182.81;4985037;28;20386;-70
2023/05/04 05:47:54;;;;;;;;;;;;;;;-142.75;100.00;78161.13;4997040;28;19914;-69
2023/05/04 05:50:21;;;;;;;;;;;;;;;-142.75;100.00;78184.78;4987498;28;19920;-70
2023/05/04 05:52:47;;;;;;;;;;;;;;;-142.75;100.00;78145.38;4985894;28;19922;-68
2023/05/04 05:55:12;;;;;;;;;;;;;;;-142.75;100.00;78161.13;4986789;28;19920;-69
2023/05/04 05:57:37;;;;;;;;;;;;;;;-142.75;100.00;78137.50;4986488;28;19917;-69
2023/05/04 06:00:03;;;;;;;;;;;;;;;-142.75;100.00;78127.66;4981172;28;20623;-67
2023/05/04 06:02:29;;;;;;;;;;;;;;;-142.75;100.00;78106.00;4986543;28;19975;-68
2023/05/04 06:04:54;;;;;;;;;;;;;;;-142.75;100.00;78082.38;4986257;28;19913;-69
2023/05/04 06:07:20;;;;;;;;;;;;;;;-142.75;100.00;78074.50;4983112;28;19933;-68
2023/05/04 06:09:46;;;;;;;;;;;;;;;-142.75;100.00;78072.53;4987091;28;20264;-69
2023/05/04 06:12:12;;;;;;;;;;;;;;;-142.75;100.00;78058.72;4986650;28;19937;-69
2023/05/04 06:14:40;;;;;;;;;;;;;;;-142.75;100.00;78035.09;4983552;28;19976;-67
2023/05/04 06:17:06;;;;;;;;;;;;;;;-142.75;100.00;78033.13;4985850;28;19914;-67
2023/05/04 06:19:37;;;;;;;;;;;;;;;-142.75;100.00;78023.28;4988618;28;19975;-68
2023/05/04 06:22:03;;;;;;;;;;;;;;;-142.75;100.00;78046.91;4986656;28;19913;-68
2023/05/04 06:24:28;;;;;;;;;;;;;;;-142.75;100.00;78027.22;4982699;28;19920;-69
2023/05/04 06:26:54;;;;;;;;;;;;;;;-142.75;100.00;78007.53;4986978;28;19917;-69
2023/05/04 06:29:19;;;;;;;;;;;;;;;-142.75;100.00;77974.06;4988478;28;19921;-69
2023/05/04 06:31:45;;;;;;;;;;;;;;;-142.75;100.00;77948.47;4987567;28;20519;-69
2023/05/04 06:34:10;;;;;;;;;;;;;;;-142.75;100.00;77936.66;4986592;28;20451;-70
2023/05/04 06:36:36;;;;;;;;;;;;;;;-142.75;100.00;77885.44;4988139;28;20000;-69
2023/05/04 06:39:01;;;;;;;;;;;;;;;-142.75;100.00;77883.47;4987364;28;19921;-69
2023/05/04 06:41:26;;;;;;;;;;;;;;;-142.75;100.00;77846.06;4986131;28;19960;-69
2023/05/04 06:43:51;;;;;;;;;;;;;;;-142.75;100.00;77863.78;4987267;28;19913;-70
2023/05/04 06:46:17;;;;;;;;;;;;;;;-142.75;100.00;77828.34;4986285;28;19925;-66
2023/05/04 06:48:42;;;;;;;;;;;;;;;-142.75;100.00;77840.16;4981299;28;19948;-68
2023/05/04 06:51:08;;;;;;;;;;;;;;;-142.75;100.00;77855.91;4982811;28;20027;-68
2023/05/04 06:53:33;;;;;;;;;;;;;;;-142.75;100.00;77846.06;4974439;28;19913;-68
2023/05/04 06:55:58;;;;;;;;;;;;;;;-142.75;100.00;77828.34;4987986;28;20008;-69
2023/05/04 06:58:24;;;;;;;;;;;;;;;-142.75;100.00;77814.56;4986981;28;19917;-69
2023/05/04 07:00:50;;;;;;;;;;;;;;;-142.75;100.00;77777.16;4979228;28;19936;-68
2023/05/04 07:03:15;;;;;;;;;;;;;;;-142.75;100.00;77743.69;4969847;28;19914;-70
2023/05/04 07:05:41;;;;;;;;;;;;;;;-142.75;100.00;77763.38;4984519;28;21347;-69
2023/05/04 07:08:06;;;;;;;;;;;;;;;-142.75;100.00;77712.16;4984489;28;19914;-69
2023/05/04 07:10:32;;;;;;;;;;;;;;;-142.75;100.00;77682.63;4979048;28;19914;-69
2023/05/04 07:12:57;;;;;;;;;;;;;;;-142.75;100.00;77660.97;4985806;28;19913;-69
2023/05/04 07:15:22;;;;;;;;;;;;;;;-142.75;100.00;77651.13;4985469;28;19914;-69
2023/05/04 07:17:48;;;;;;;;;;;;;;;-142.75;100.00;77657.03;4986098;28;20298;-69
2023/05/04 07:20:16;;;;;;;;;;;;;;;-142.75;100.00;77662.94;4986279;28;20008;-70
2023/05/04 07:22:42;;;;;;;;;;;;;;;-142.75;100.00;77647.19;4978920;28;19914;-70
2023/05/04 07:25:07;;;;;;;;;;;;;;;-142.75;100.00;77649.16;4985479;28;20414;-70
2023/05/04 07:27:34;;;;;;;;;;;;;;;-142.75;100.00;77603.88;4983795;28;19917;-70
2023/05/04 07:30:00;;;;;;;;;;;;;;;-142.75;100.00;77588.13;4977352;28;19914;-70
2023/05/04 07:32:25;;;;;;;;;;;;;;;-142.75;100.00;77570.41;4986854;28;19914;-70
2023/05/04 07:34:50;;;;;;;;;;;;;;;-142.75;100.00;77562.53;4986426;28;19960;-70
2023/05/04 07:37:16;;;;;;;;;;;;;;;-142.75;100.00;77542.84;4977245;28;19913;-71
2023/05/04 07:39:41;;;;;;;;;;;;;;;-142.75;100.00;77542.84;4985041;28;20335;-71
2023/05/04 07:42:07;;;;;;;;;;;;;;;-142.75;100.00;77558.59;4984609;28;20009;-71
2023/05/04 07:44:32;;;;;;;;;;;;;;;-142.75;100.00;77552.69;4986235;28;19937;-70
2023/05/04 07:46:58;;;;;;;;;;;;;;;-142.75;100.00;77558.59;4986216;28;20016;-71
2023/05/04 07:49:23;;;;;;;;;;;;;;;-142.75;100.00;77534.97;4986148;28;21659;-70
2023/05/04 07:51:48;;;;;;;;;;;;;;;-142.75;100.00;77531.03;4998466;28;19914;-70
2023/05/04 07:54:14;;;;;;;;;;;;;;;-142.75;100.00;77550.72;4986275;28;20012;-71
2023/05/04 07:56:40;;;;;;;;;;;;;;;-142.75;100.00;77519.22;4986308;28;22127;-73
2023/05/04 07:59:05;;;;;;;;;;;;;;;-142.75;100.00;77509.38;4985560;28;19914;-71
2023/05/04 08:01:30;;;;;;;;;;;;;;;-142.75;100.00;77470.00;4989504;28;19922;-72
2023/05/04 08:03:56;;;;;;;;;;;;;;;-142.75;100.00;77448.34;4986354;28;20052;-71
2023/05/04 08:06:21;;;;;;;;;;;;;;;-142.75;100.00;77458.16;4989016;28;19918;-72
2023/05/04 08:08:48;;;;;;;;;;;;;;;-142.75;100.00;77430.59;4989378;28;20016;-69
2023/05/04 08:11:13;;;;;;;;;;;;;;;-142.75;100.00;77418.78;4989477;28;20581;-71
2023/05/04 08:13:39;;;;;;;;;;;;;;;-142.75;100.00;77369.56;4989862;28;20048;-70
2023/05/04 08:16:05;;;;;;;;;;;;;;;-142.75;100.00;77373.50;4989800;28;19920;-69
2023/05/04 08:18:31;;;;;;;;;;;;;;;-142.75;100.00;77353.81;4989985;28;19914;-72
2023/05/04 08:20:57;;;;;;;;;;;;;;;-142.75;100.00;77334.13;4989913;28;19921;-71
2023/05/04 08:23:22;;;;;;;;;;;;;;;-142.75;100.00;77302.63;5005239;28;19922;-72
2023/05/04 08:25:47;;;;;;;;;;;;;;;-142.75;100.00;77282.94;4987025;28;19925;-70
2023/05/04 08:28:12;;;;;;;;;;;;;;;-142.75;97.62;77261.28;4990449;28;19952;-72
2023/05/04 08:30:38;;;;;;;;;;;;;;;-142.75;95.44;77247.50;4989736;28;20004;-71
2023/05/04 08:33:03;;;;;;;;;;;;;;;-142.75;94.54;77231.75;4996828;28;19913;-71
2023/05/04 08:35:28;;;;;;;;;;;;;;;-142.75;95.50;77239.63;4989390;28;19918;-71
2023/05/04 08:37:54;;;;;;;;;;;;;;;-142.75;92.83;77217.97;4989668;28;19913;-71
2023/05/04 08:40:19;;;;;;;;;;;;;;;-142.75;91.88;77231.75;4975549;28;20177;-70
2023/05/04 08:42:49;;;;;;;;;;;;;;;-142.75;91.67;77196.31;4998287;28;19920;-70
2023/05/04 08:45:15;;;;;;;;;;;;;;;-142.75;91.68;77162.84;4989273;28;19918;-69
2023/05/04 08:47:42;;;;;;;;;;;;;;;-142.75;90.48;77117.56;4989073;28;20349;-72
2023/05/04 08:50:07;;;;;;;;;;;;;;;-142.75;89.47;77105.75;4999625;28;20065;-72
2023/05/04 08:52:34;;;;;;;;;;;;;;;-142.75;88.04;77133.31;4988923;28;19913;-71
2023/05/04 08:55:00;;;;;;;;;;;;;;;-142.75;89.45;77117.56;4988538;28;19917;-71
2023/05/04 08:57:25;;;;;;;;;;;;;;;-142.75;90.28;77084.09;4988756;28;20473;-72
2023/05/04 08:59:52;;;;;;;;;;;;;;;-142.75;87.10;77054.56;4987458;28;20413;-70
2023/05/04 09:02:19;;;;;;;;;;;;;;;-142.75;86.77;77027.00;4983285;28;19968;-70
2023/05/04 09:04:44;;;;;;;;;;;;;;;-142.75;85.98;76973.84;4989172;28;19913;-72
2023/05/04 09:07:10;;;;;;;;;;;;;;;-142.75;84.66;76995.50;4988839;28;20299;-74
2023/05/04 09:09:35;;;;;;;;;;;;;;;-142.75;87.43;76960.06;4989114;28;19941;-74
2023/05/04 09:12:00;;;;;;;;;;;;;;;-142.75;83.11;76954.16;4989255;28;19932;-72
2023/05/04 09:14:33;;;;;;;;;;;;;;;-142.75;85.03;76950.22;4988105;28;19914;-72
2023/05/04 09:16:59;;;;;;;;;;;;;;;-142.75;84.67;76922.66;4989199;28;19918;-73
2023/05/04 09:19:25;;;;;;;;;;;;;;;-142.75;82.63;76914.78;4989098;28;20383;-71
2023/05/04 09:21:53;;;;;;;;;;;;;;;-142.75;84.75;76893.13;4988537;28;20004;-71
2023/05/04 09:24:28;;;;;;;;;;;;;;;-142.75;82.69;76859.66;4983265;28;19924;-71
2023/05/04 09:26:53;;;;;;;;;;;;;;;-142.75;81.87;76814.38;4988115;28;20817;-73
2023/05/04 09:29:18;;;;;;;;;;;;;;;-142.75;81.02;76834.06;4988663;28;20008;-72
2023/05/04 09:31:48;;;;;;;;;;;;;;;-142.75;81.73;76836.03;4988068;28;20450;-73
2023/05/04 09:34:14;;;;;;;;;;;;;;;-142.75;81.93;76849.81;4988397;28;19913;-73
2023/05/04 09:36:39;;;;;;;;;;;;;;;-142.75;81.74;76838.00;4988348;28;20004;-73
2023/05/04 09:39:11;;;;;;;;;;;;;;;-142.75;81.81;76832.09;4987642;28;19999;-71
2023/05/04 09:41:37;;;;;;;;;;;;;;;-142.75;83.33;76802.56;4989358;28;19914;-72
2023/05/04 09:44:03;;;;;;;;;;;;;;;-142.75;83.54;76806.50;4986378;28;19998;-74
2023/05/04 09:46:29;;;;;;;;;;;;;;;-142.75;83.28;76759.28;4969103;28;19972;-73
2023/05/04 09:48:55;;;;;;;;;;;;;;;-142.75;81.79;76715.97;4986422;28;19914;-74
2023/05/04 09:51:22;;;;;;;;;;;;;;;-142.75;79.23;76715.97;4986769;28;19948;-73
2023/05/04 09:53:48;;;;;;;;;;;;;;;-142.75;80.02;76700.22;4987005;28;19929;-73
2023/05/04 09:56:19;;;;;;;;;;;;;;;-142.75;81.30;76645.09;4987297;28;19914;-73
2023/05/04 09:58:45;;;;;;;;;;;;;;;-142.75;78.61;76645.09;4987666;28;19914;-73
2023/05/04 10:01:10;;;;;;;;;;;;;;;-142.75;79.31;76633.28;4970701;28;19914;-73
2023/05/04 10:03:36;;;;;;;;;;;;;;;-142.75;78.47;76629.34;4988888;28;19953;-73
2023/05/04 10:06:03;;;;;;;;;;;;;;;-142.75;78.51;76637.22;4987902;28;19922;-73
2023/05/04 10:08:28;;;;;;;;;;;;;;;-142.75;78.56;76617.53;4975151;28;19922;-73
2023/05/04 10:10:54;;;;;;;;;;;;;;;-142.75;78.41;76629.34;4988394;28;19914;-74
2023/05/04 10:13:19;;;;;;;;;;;;;;;-142.75;79.14;76586.03;4987839;28;19929;-73
2023/05/04 10:16:01;;;;;;;;;;;;;;;-142.75;78.05;76562.41;4987861;28;20307;-73
2023/05/04 10:18:43;;;;;;;;;;;;;;;-142.75;76.52;76570.28;4985192;28;19922;-72
2023/05/04 10:21:26;;;;;;;;;;;;;;;-142.75;76.78;76578.16;4975449;28;19921;-73
2023/05/04 10:24:10;;;;;;;;;;;;;;;-142.75;79.22;76517.16;4987731;28;19914;-73
2023/05/04 10:26:35;;;;;;;;;;;;;;;-142.75;76.82;76511.25;4991344;28;19992;-74
2023/05/04 10:29:11;;;;;;;;;;;;;;;-142.75;75.78;76523.06;4987547;28;20005;-73
2023/05/04 10:31:37;;;;;;;;;;;;;;;-142.75;77.86;76507.31;4987870;28;19920;-74
2023/05/04 10:34:02;;;;;;;;;;;;;;;-142.75;75.19;76462.03;4987400;28;20367;-73
2023/05/04 10:36:34;;;;;;;;;;;;;;;-142.75;75.83;76491.56;4987657;28;19918;-72
2023/05/04 10:39:00;;;;;;;;;;;;;;;-142.75;75.88;76530.91;4987179;28;20466;-71
2023/05/04 10:41:25;;;;;;;;;;;;;;;-142.75;77.90;76521.09;4987842;28;19996;-71
2023/05/04 10:44:01;;;;;;;;;;;;;;;-142.75;76.56;76460.06;4985936;28;20294;-71
2023/05/04 10:46:26;;;;;;;;;;;;;;;-142.75;75.31;76464.00;4977251;28;20053;-71
2023/05/04 10:48:52;;;;;;;;;;;;;;;-142.75;76.18;76428.56;4987107;28;19948;-71
2023/05/04 10:51:21;;;;;;;;;;;;;;;-142.75;75.94;76408.88;4987277;28;19968;-71
2023/05/04 10:53:46;;;;;;;;;;;;;;;-142.75;76.40;76357.69;4987016;28;19913;-72
2023/05/04 10:56:22;;;;;;;;;;;;;;;-142.75;75.39;76304.56;4985499;28;19944;-74
2023/05/04 10:58:47;;;;;;;;;;;;;;;-142.75;73.82;76306.53;4978563;28;20012;-69
2023/05/04 11:01:13;;;;;;;;;;;;;;;-142.75;74.84;76286.84;4973336;28;20189;-70
2023/05/04 11:03:39;;;;;;;;;;;;;;;-142.75;73.04;76288.81;4985138;28;19922;-67
2023/05/04 11:06:13;;;;;;;;;;;;;;;-142.75;74.20;76290.78;4986270;28;20343;-70
2023/05/04 11:08:38;;;;;;;;;;;;;;;-142.75;75.85;76261.25;4969165;28;20361;-70
2023/05/04 11:11:07;;;;;;;;;;;;;;;-142.75;72.83;76290.78;4986663;28;20016;-70
2023/05/04 11:13:33;;;;;;;;;;;;;;;-142.75;72.58;76237.63;4985442;28;20375;-72
2023/05/04 11:15:59;;;;;;;;;;;;;;;-142.75;72.24;76237.63;4993167;28;19925;-72
2023/05/04 11:18:32;;;;;;;;;;;;;;;-142.75;70.46;76278.97;4986005;28;19914;-72
2023/05/04 11:20:58;;;;;;;;;;;;;;;-142.75;71.98;76284.88;4986057;28;19917;-72
2023/05/04 11:23:24;;;;;;;;;;;;;;;-142.75;73.85;76298.66;4986216;28;20383;-72
2023/05/04 11:25:49;;;;;;;;;;;;;;;-142.75;74.28;76208.09;4986391;28;19921;-72
2023/05/04 11:28:15;;;;;;;;;;;;;;;-142.75;71.37;76200.25;4986253;28;19917;-70
2023/05/04 11:30:41;;;;;;;;;;;;;;;-142.75;70.70;76227.78;4986213;28;19956;-71
2023/05/04 11:33:11;;;;;;;;;;;;;;;-142.75;70.83;76212.03;4986287;28;19949;-71
2023/05/04 11:35:36;;;;;;;;;;;;;;;-142.75;72.41;76196.31;4982208;28;19988;-72
2023/05/04 11:38:01;;;;;;;;;;;;;;;-142.75;73.13;76186.47;4980590;28;19914;-73
2023/05/04 11:40:27;;;;;;;;;;;;;;;-142.75;73.31;76196.31;4990591;28;19975;-73
2023/05/04 11:42:53;;;;;;;;;;;;;;;-142.75;72.85;76253.38;4989792;28;19913;-71
2023/05/04 11:45:20;;;;;;;;;;;;;;;-142.75;73.05;76204.16;4989752;28;20048;-70
2023/05/04 11:47:46;;;;;;;;;;;;;;;-142.75;74.12;76192.38;4990035;28;19936;-72
2023/05/04 11:50:13;;;;;;;;;;;;;;;-142.75;72.20;76154.97;4989428;28;20377;-72
2023/05/04 11:52:42;;;;;;;;;;;;;;;-142.75;72.16;76107.72;4983844;28;20574;-71
2023/05/04 11:55:12;;;;;;;;;;;;;;;-142.75;73.49;76062.47;4989367;28;19996;-72
2023/05/04 11:57:38;;;;;;;;;;;;;;;-142.75;71.81;76058.53;4989743;28;19914;-73
2023/05/04 12:00:05;;;;;;;;;;;;;;;-142.75;71.63;76082.13;4986913;28;19920;-72
2023/05/04 12:02:30;;;;;;;;;;;;;;;-142.75;74.64;76019.16;4989589;28;20299;-72
2023/05/04 12:04:55;;;;;;;;;;;;;;;-142.75;69.75;76023.09;4989493;28;19914;-71
2023/05/04 12:07:20;;;;;;;;;;;;;;;-142.75;72.24;76066.41;4989169;28;20094;-72
2023/05/04 12:09:46;;;;;;;;;;;;;;;-142.75;70.32;76080.16;4989983;28;19976;-74
2023/05/04 12:12:13;;;;;;;;;;;;;;;-142.75;70.03;76048.69;4989885;28;19941;-72
2023/05/04 12:14:51;;;;;;;;;;;;;;;-142.75;69.85;76036.88;4988984;28;19917;-70